Time;durP1;ratioP1;P1;durP2;ratioP2;P2;SDS_P1;SDS_P2;PMS_P1;PMS_P2;Temp;Humidity;BMP_temperature;BMP_pressure;BME280_temperature;BME280_humidity;BME280_pressure;Samples;Min_cycle;Max_cycle;Signal;HPM_P1;HPM_P2
2022/04/18 00:01:49;;;;;;;15.80;10.02;;;;;;;;;;5052360;28;20041;-68
2022/04/18 00:04:15;;;;;;;13.75;9.30;;;;;;;;;;5052136;28;20403;-69
2022/04/18 00:06:41;;;;;;;12.93;9.63;;;;;;;;;;5070487;28;20047;-69
2022/04/18 00:09:07;;;;;;;14.95;9.30;;;;;;;;;;5051462;28;20504;-67
2022/04/18 00:11:33;;;;;;;17.55;10.70;;;;;;;;;;5052568;28;20041;-68
2022/04/18 00:13:59;;;;;;;14.98;10.07;;;;;;;;;;5052354;28;20409;-68
2022/04/18 00:16:25;;;;;;;16.15;10.07;;;;;;;;;;5072235;28;20478;-69
2022/04/18 00:18:51;;;;;;;15.45;10.45;;;;;;;;;;5055517;28;20127;-67
2022/04/18 00:21:17;;;;;;;17.40;10.52;;;;;;;;;;5073620;28;20033;-68
2022/04/18 00:23:43;;;;;;;15.95;10.82;;;;;;;;;;5055978;28;20041;-70
2022/04/18 00:26:09;;;;;;;17.20;10.60;;;9.70;94.60;;;;;;5073808;28;20051;-69
2022/04/18 00:28:35;;;;;;;14.82;10.80;;;;;;;;;;5056147;28;20067;-70
2022/04/18 00:31:01;;;;;;;15.02;11.02;;;;;;;;;;5072940;28;20551;-70
2022/04/18 00:33:27;;;;;;;15.45;10.48;;;;;;;;;;5055872;28;20185;-69
2022/04/18 00:35:54;;;;;;;16.48;10.43;;;;;;;;;;5038986;28;20105;-69
2022/04/18 00:38:20;;;;;;;14.73;9.55;;;;;;;;;;5072665;28;20050;-69
2022/04/18 00:40:46;;;;;;;16.95;10.50;;;;;;;;;;5069518;28;20420;-70
2022/04/18 00:43:12;;;;;;;15.00;10.48;;;;;;;;;;5039118;28;20119;-69
2022/04/18 00:45:37;;;;;;;16.45;11.02;;;9.40;95.60;;;;;;5073669;28;20047;-70
2022/04/18 00:48:03;;;;;;;13.88;9.48;;;9.40;95.10;;;;;;5055453;28;20043;-69
2022/04/18 00:50:32;;;;;;;13.35;9.27;;;9.30;96.00;;;;;;5055080;28;20044;-69
2022/04/18 00:52:58;;;;;;;16.55;10.65;;;9.20;95.70;;;;;;5073544;28;20033;-70
2022/04/18 00:55:26;;;;;;;15.18;10.23;;;9.20;95.40;;;;;;5038722;28;20173;-69
2022/04/18 00:57:53;;;;;;;15.85;10.15;;;9.40;95.70;;;;;;5055307;28;20047;-70
2022/04/18 01:00:19;;;;;;;17.10;10.55;;;;;;;;;;5072531;28;20063;-69
2022/04/18 01:02:45;;;;;;;16.67;10.68;;;;;;;;;;5055250;28;20499;-69
2022/04/18 01:05:12;;;;;;;17.20;10.88;;;;;;;;;;5038507;28;20043;-69
2022/04/18 01:07:38;;;;;;;15.70;10.80;;;9.00;94.80;;;;;;5055343;28;20418;-70
2022/04/18 01:10:05;;;;;;;17.10;10.65;;;;;;;;;;5054276;28;20052;-69
2022/04/18 01:12:30;;;;;;;15.40;9.68;;;9.10;96.20;;;;;;5055023;28;20619;-69
2022/04/18 01:14:56;;;;;;;17.50;10.05;;;9.10;95.90;;;;;;5055200;28;20127;-70
2022/04/18 01:17:22;;;;;;;14.60;9.77;;;;;;;;;;5073042;28;20076;-70
2022/04/18 01:19:48;;;;;;;16.60;10.25;;;;;;;;;;5072454;28;20040;-70
2022/04/18 01:22:14;;;;;;;17.02;11.30;;;;;;;;;;5073271;28;20044;-70
2022/04/18 01:30:11;;;;;;;15.23;10.82;;;8.70;95.10;;;;;;5053872;28;20083;-69
2022/04/18 01:32:38;;;;;;;17.35;10.98;;;;;;;;;;5072971;28;20072;-69
2022/04/18 01:35:04;;;;;;;17.85;11.50;;;8.80;96.50;;;;;;5072522;28;20506;-69
2022/04/18 01:37:30;;;;;;;13.52;9.85;;;;;;;;;;5037852;28;20064;-69
2022/04/18 01:39:56;;;;;;;18.35;10.93;;;8.90;95.50;;;;;;5037067;28;20087;-69
2022/04/18 01:42:22;;;;;;;19.90;10.13;;;;;;;;;;5072220;28;20048;-69
2022/04/18 01:44:48;;;;;;;16.95;10.88;;;;;;;;;;5054366;28;20128;-69
2022/04/18 01:47:14;;;;;;;15.60;11.05;;;8.70;99.90;;;;;;5054514;28;20475;-69
2022/04/18 01:49:40;;;;;;;17.90;11.10;;;8.70;96.80;;;;;;5053577;28;20040;-69
2022/04/18 01:52:06;;;;;;;18.38;11.77;;;8.50;97.20;;;;;;5071933;28;20036;-70
2022/04/18 01:54:32;;;;;;;21.90;12.43;;;8.60;97.90;;;;;;5054179;28;20465;-69
2022/04/18 01:56:57;;;;;;;18.73;11.63;;;8.60;99.90;;;;;;5053914;28;20044;-69
2022/04/18 01:59:23;;;;;;;18.30;12.27;;;8.60;99.40;;;;;;5066406;28;20453;-69
2022/04/18 02:01:49;;;;;;;19.85;12.20;;;8.30;99.20;;;;;;5072047;28;20184;-69
2022/04/18 02:04:17;;;;;;;20.70;13.48;;;;;;;;;;5070679;28;20496;-69
2022/04/18 02:06:43;;;;;;;18.10;11.75;;;;;;;;;;5070487;28;20080;-69
2022/04/18 02:09:17;;;;;;;20.10;12.10;;;;;;;;;;5070999;28;20532;-69
2022/04/18 02:11:45;;;;;;;22.88;12.13;;;;;;;;;;5070594;28;20044;-69
2022/04/18 02:14:11;;;;;;;20.92;12.60;;;8.30;99.90;;;;;;5070529;28;20044;-69
2022/04/18 02:16:37;;;;;;;18.27;12.25;;;;;;;;;;5070429;28;20053;-69
2022/04/18 02:19:02;;;;;;;21.42;12.35;;;8.00;98.00;;;;;;5070024;28;20048;-69
2022/04/18 02:21:28;;;;;;;20.70;12.02;;;8.20;97.30;;;;;;5055412;28;20043;-68
2022/04/18 02:23:54;;;;;;;18.92;11.50;;;8.00;98.30;;;;;;5049208;28;20080;-69
2022/04/18 02:26:19;;;;;;;20.20;12.32;;;8.00;98.40;;;;;;5053634;28;20127;-69
2022/04/18 02:28:45;;;;;;;19.17;12.23;;;8.00;97.40;;;;;;5053493;28;20068;-69
2022/04/18 02:31:10;;;;;;;23.42;11.85;;;8.00;98.50;;;;;;5052959;28;20502;-69
2022/04/18 02:33:36;;;;;;;19.75;12.23;;;8.00;99.00;;;;;;5071378;28;20495;-70
2022/04/18 02:36:02;;;;;;;18.92;12.32;;;8.10;99.20;;;;;;5053378;28;20039;-69
2022/04/18 02:38:28;;;;;;;17.92;11.80;;;8.10;99.40;;;;;;5070784;28;20048;-69
2022/04/18 02:40:54;;;;;;;18.10;12.57;;;8.00;99.30;;;;;;5070617;28;20033;-69
2022/04/18 02:43:19;;;;;;;20.52;12.20;;;8.10;99.90;;;;;;5071385;28;20518;-69
2022/04/18 02:45:45;;;;;;;18.02;11.73;;;8.20;99.90;;;;;;5053448;28;20047;-69
2022/04/18 02:48:11;;;;;;;17.67;10.63;;;8.00;99.90;;;;;;5053016;28;20040;-69
2022/04/18 02:50:36;;;;;;;20.98;12.65;;;8.10;99.90;;;;;;5052495;28;20036;-70
2022/04/18 02:53:03;;;;;;;18.83;11.60;;;;;;;;;;5052685;28;20033;-69
2022/04/18 02:55:30;;;;;;;19.23;11.85;;;;;;;;;;5052934;28;20041;-70
2022/04/18 02:57:56;;;;;;;22.33;12.38;;;8.10;99.90;;;;;;5071079;28;20048;-69
2022/04/18 03:00:21;;;;;;;21.60;11.88;;;7.90;99.90;;;;;;5052197;28;20041;-69
2022/04/18 03:02:47;;;;;;;18.70;12.38;;;7.90;99.90;;;;;;5053409;28;20040;-69
2022/04/18 03:05:12;;;;;;;16.73;11.52;;;7.80;99.80;;;;;;5036260;28;20599;-69
2022/04/18 03:07:38;;;;;;;18.98;11.75;;;7.80;98.70;;;;;;5052796;28;20051;-69
2022/04/18 03:10:05;;;;;;;18.50;11.02;;;8.00;98.50;;;;;;5052266;28;20047;-69
2022/04/18 03:12:31;;;;;;;17.80;11.75;;;7.90;98.60;;;;;;5052904;28;20044;-70
2022/04/18 03:14:57;;;;;;;19.92;11.45;;;7.70;98.50;;;;;;5052921;28;20212;-69
2022/04/18 03:17:23;;;;;;;22.60;11.80;;;;;;;;;;5071032;28;20040;-69
2022/04/18 03:19:49;;;;;;;17.77;11.73;;;;;;;;;;5053008;28;20041;-70
2022/04/18 03:22:15;;;;;;;15.70;10.32;;;;;;;;;;5070806;28;20040;-68
2022/04/18 03:24:41;;;;;;;19.98;11.40;;;;;;;;;;5071044;28;20123;-69
2022/04/18 03:27:07;;;;;;;17.10;11.82;;;;;;;;;;5070739;28;20440;-69
2022/04/18 03:29:33;;;;;;;19.33;12.05;;;;;;;;;;5068459;28;20080;-69
2022/04/18 03:31:59;;;;;;;16.42;11.55;;;;;;;;;;5052577;28;20068;-69
2022/04/18 03:34:26;;;;;;;18.63;11.77;;;;;;;;;;5052691;28;20127;-69
2022/04/18 03:39:51;;;;;;;16.70;12.38;;;7.70;99.90;;;;;;5085490;28;20080;-70
2022/04/18 03:42:29;;;;;;;19.33;11.45;;;7.50;99.90;;;;;;5035739;28;20032;-69
2022/04/18 03:44:56;;;;;;;15.85;11.57;;;7.60;99.90;;;;;;5052534;28;20033;-69
2022/04/18 03:47:22;;;;;;;19.20;12.00;;;7.30;99.40;;;;;;5052258;28;20127;-69
2022/04/18 03:49:48;;;;;;;23.00;13.13;;;;;;;;;;5074667;22;20160;-69
2022/04/18 03:52:13;;;;;;;17.65;11.25;;;7.40;98.10;;;;;;5039053;28;20033;-69
2022/04/18 03:54:43;;;;;;;17.50;10.70;;;7.20;99.80;;;;;;5057136;28;20060;-69
2022/04/18 03:57:09;;;;;;;18.58;11.50;;;;;;;;;;5074698;28;20036;-69
2022/04/18 03:59:35;;;;;;;20.65;11.73;;;7.40;99.90;;;;;;5074238;28;20440;-69
2022/04/18 04:02:02;;;;;;;19.73;11.80;;;7.50;99.00;;;;;;5056879;28;20093;-69
2022/04/18 04:04:28;;;;;;;19.15;12.07;;;7.20;98.90;;;;;;5074776;28;20036;-69
2022/04/18 04:06:54;;;;;;;20.80;13.57;;;;;;;;;;5056513;28;20517;-69
2022/04/18 04:09:20;;;;;;;20.55;12.38;;;;;;;;;;5055863;28;20044;-69
2022/04/18 04:11:45;;;;;;;19.50;11.80;;;7.00;99.10;;;;;;5040400;28;20041;-69
2022/04/18 04:14:11;;;;;;;19.20;11.60;;;7.00;99.50;;;;;;5074800;28;20117;-69
2022/04/18 04:16:39;;;;;;;16.80;11.50;;;7.10;99.70;;;;;;5056718;28;20044;-70
2022/04/18 04:19:06;;;;;;;18.02;11.63;;;7.10;99.60;;;;;;5073691;28;20040;-70
2022/04/18 04:21:33;;;;;;;20.65;12.75;;;6.90;99.90;;;;;;5056548;28;20067;-69
2022/04/18 04:23:59;;;;;;;20.67;12.20;;;7.10;99.90;;;;;;5056282;28;20154;-69
2022/04/18 04:26:25;;;;;;;20.70;11.57;;;7.20;99.90;;;;;;5056280;28;20066;-70
2022/04/18 04:28:51;;;;;;;16.40;11.70;;;7.00;99.90;;;;;;5056183;28;20066;-68
2022/04/18 04:31:16;;;;;;;18.08;11.75;;;7.00;99.90;;;;;;5039175;28;20494;-69
2022/04/18 04:33:42;;;;;;;19.80;11.65;;;7.20;99.90;;;;;;5056128;28;20041;-69
2022/04/18 04:36:08;;;;;;;19.00;12.57;;;7.00;99.90;;;;;;5055718;28;20093;-70
2022/04/18 04:38:34;;;;;;;16.38;11.07;;;6.90;99.90;;;;;;5072967;28;20082;-70
2022/04/18 04:40:59;;;;;;;18.17;11.52;;;7.00;99.90;;;;;;5055269;28;20115;-69
2022/04/18 04:43:28;;;;;;;19.33;12.68;;;7.00;99.90;;;;;;5055959;28;20076;-69
2022/04/18 04:45:57;;;;;;;19.80;12.40;;;7.10;99.90;;;;;;5073608;28;20106;-70
2022/04/18 04:48:23;;;;;;;19.42;12.80;;;7.20;99.90;;;;;;5055677;28;20149;-70
2022/04/18 04:50:49;;;;;;;18.48;12.07;;;7.20;99.90;;;;;;5073275;28;20044;-69
2022/04/18 04:53:15;;;;;;;18.17;11.93;;;7.20;99.90;;;;;;5056033;28;20375;-69
2022/04/18 04:55:41;;;;;;;20.40;12.88;;;7.30;99.90;;;;;;5055715;28;20040;-69
2022/04/18 04:58:09;;;;;;;19.38;12.98;;;7.00;99.90;;;;;;5055805;28;20097;-69
2022/04/18 05:00:35;;;;;;;19.80;12.18;;;6.90;99.90;;;;;;5038523;28;20127;-70
2022/04/18 05:03:03;;;;;;;18.00;12.20;;;7.10;99.90;;;;;;5071252;28;20036;-68
2022/04/18 05:05:29;;;;;;;19.98;11.93;;;6.90;99.90;;;;;;5061829;28;20471;-69
2022/04/18 05:07:55;;;;;;;22.02;13.20;;;7.10;99.90;;;;;;5066772;28;20068;-70
2022/04/18 05:10:21;;;;;;;19.05;11.45;;;7.00;99.90;;;;;;5061692;28;20033;-69
2022/04/18 05:12:47;;;;;;;22.80;12.57;;;7.30;99.90;;;;;;5046321;28;20094;-69
2022/04/18 05:15:12;;;;;;;18.65;12.85;;;7.10;99.90;;;;;;5041619;28;20036;-69
2022/04/18 05:17:38;;;;;;;24.48;13.02;;;7.10;99.90;;;;;;5055094;28;20040;-70
2022/04/18 05:20:04;;;;;;;20.60;12.57;;;7.30;99.90;;;;;;5043369;28;20077;-69
2022/04/18 05:22:31;;;;;;;17.70;12.25;;;7.10;99.90;;;;;;5050441;28;20060;-69
2022/04/18 05:24:57;;;;;;;23.52;12.82;;;7.00;99.90;;;;;;5055226;28;20118;-70
2022/04/18 05:27:23;;;;;;;20.23;12.18;;;7.30;99.90;;;;;;5072543;28;20429;-69
2022/04/18 05:29:50;;;;;;;22.52;13.20;;;7.10;99.90;;;;;;5052139;28;20097;-69
2022/04/18 05:32:16;;;;;;;19.60;12.40;;;7.20;99.90;;;;;;5052842;28;20376;-68
2022/04/18 05:34:42;;;;;;;21.60;13.45;;;7.20;99.90;;;;;;5034944;28;20044;-69
2022/04/18 05:37:07;;;;;;;18.42;11.23;;;7.40;99.90;;;;;;5035298;28;20514;-70
2022/04/18 05:39:33;;;;;;;19.65;12.02;;;7.50;99.90;;;;;;5034442;28;20529;-69
2022/04/18 05:42:00;;;;;;;18.23;12.32;;;7.60;99.90;;;;;;5050263;28;20063;-69
2022/04/18 05:44:25;;;;;;;15.85;11.77;;;7.50;99.90;;;;;;5072683;28;20123;-70
2022/04/18 05:46:51;;;;;;;18.67;12.00;;;7.50;99.90;;;;;;5056926;28;20079;-70
2022/04/18 05:49:17;;;;;;;16.83;12.30;;;7.70;99.90;;;;;;5058557;28;20036;-70
2022/04/18 05:51:43;;;;;;;15.80;11.48;;;7.70;99.90;;;;;;5078305;28;20047;-70
2022/04/18 05:54:09;;;;;;;20.58;12.30;;;7.70;99.90;;;;;;5073081;28;20086;-69
2022/04/18 05:56:35;;;;;;;18.85;12.40;;;7.70;99.90;;;;;;5037964;28;20055;-70
2022/04/18 05:59:01;;;;;;;20.35;12.15;;;7.70;99.90;;;;;;5060686;28;20147;-69
2022/04/18 06:01:28;;;;;;;21.77;12.50;;;7.80;99.90;;;;;;5035240;28;20430;-69
2022/04/18 06:03:54;;;;;;;17.05;11.90;;;8.00;99.90;;;;;;5035145;28;20048;-70
2022/04/18 06:06:20;;;;;;;17.85;13.10;;;7.80;99.90;;;;;;5034249;28;20124;-71
2022/04/18 06:08:46;;;;;;;20.48;13.38;;;8.00;99.90;;;;;;5052238;28;20123;-69
2022/04/18 06:11:12;;;;;;;18.67;12.38;;;8.00;99.90;;;;;;5051688;28;20043;-69
2022/04/18 06:13:37;;;;;;;16.25;11.80;;;7.90;99.90;;;;;;5051913;28;20044;-69
2022/04/18 06:16:03;;;;;;;19.75;12.57;;;8.10;99.90;;;;;;5034195;28;20048;-70
2022/04/18 06:18:28;;;;;;;17.75;12.32;;;8.10;99.90;;;;;;5034307;28;20041;-69
2022/04/18 06:20:54;;;;;;;17.17;12.02;;;8.20;99.90;;;;;;5036888;28;20043;-70
2022/04/18 06:23:20;;;;;;;18.05;12.73;;;8.20;99.90;;;;;;5054171;28;20051;-70
2022/04/18 06:25:45;;;;;;;18.75;12.38;;;8.50;99.90;;;;;;5054169;28;20048;-70
2022/04/18 06:28:12;;;;;;;21.05;12.90;;;8.50;99.90;;;;;;5053705;28;20037;-70
2022/04/18 06:30:38;;;;;;;20.33;12.95;;;8.70;99.90;;;;;;5052990;28;20045;-70
2022/04/18 06:33:04;;;;;;;17.88;11.90;;;8.60;99.90;;;;;;5071879;28;20081;-71
2022/04/18 06:35:29;;;;;;;19.60;13.23;;;8.90;99.90;;;;;;5037561;28;20040;-70
2022/04/18 06:37:55;;;;;;;21.02;13.05;;;8.70;99.90;;;;;;5071482;28;20036;-70
2022/04/18 06:40:20;;;;;;;20.73;12.60;;;8.80;99.90;;;;;;5053059;28;20048;-70
2022/04/18 06:42:46;;;;;;;18.52;11.82;;;9.00;99.90;;;;;;5037233;28;20484;-71
2022/04/18 06:45:12;;;;;;;17.52;11.70;;;9.00;99.90;;;;;;5053538;28;20050;-70
2022/04/18 06:47:37;;;;;;;18.80;12.90;;;9.10;99.70;;;;;;5053573;28;20121;-70
2022/04/18 06:50:08;;;;;;;18.35;11.93;;;9.30;99.40;;;;;;5052661;28;20090;-70
2022/04/18 06:52:41;;;;;;;22.40;12.35;;;9.50;99.50;;;;;;5053599;28;20139;-70
2022/04/18 06:55:08;;;;;;;18.23;11.68;;;9.40;99.80;;;;;;5053532;28;20037;-70
2022/04/18 06:57:34;;;;;;;17.77;11.60;;;9.70;99.80;;;;;;5053421;28;20037;-70
2022/04/18 07:00:01;;;;;;;17.60;11.45;;;9.70;99.90;;;;;;5052672;28;20044;-70
2022/04/18 07:02:27;;;;;;;16.50;11.40;;;;;;;;;;5053628;28;20046;-70
2022/04/18 07:04:53;;;;;;;20.80;11.95;;;;;;;;;;5063320;28;20075;-70
2022/04/18 07:07:19;;;;;;;24.23;13.07;;;10.00;99.90;;;;;;5041529;28;20041;-70
2022/04/18 07:09:44;;;;;;;17.48;10.80;;;10.00;99.90;;;;;;5055127;28;20036;-70
2022/04/18 07:12:10;;;;;;;15.60;11.60;;;10.20;99.90;;;;;;5043815;28;20163;-70
2022/04/18 07:14:36;;;;;;;18.50;11.65;;;10.30;99.90;;;;;;5056869;28;20053;-71
2022/04/18 07:17:04;;;;;;;18.75;11.38;;;;;;;;;;5071394;28;20051;-70
2022/04/18 07:19:31;;;;;;;17.20;10.65;;;;;;;;;;5059329;28;20098;-69
2022/04/18 07:21:59;;;;;;;16.98;11.27;;;;;;;;;;5033461;28;20417;-71
2022/04/18 07:24:25;;;;;;;17.13;10.88;;;;;;;;;;5033073;28;20083;-70
2022/04/18 07:26:51;;;;;;;16.85;10.57;;;;;;;;;;5016871;28;20049;-70
2022/04/18 07:29:17;;;;;;;18.15;10.18;;;;;;;;;;5070493;28;20039;-70
2022/04/18 07:31:43;;;;;;;17.15;9.88;;;;;;;;;;5071027;28;20037;-70
2022/04/18 07:34:09;;;;;;;15.05;10.23;;;;;;;;;;5053061;28;20043;-71
2022/04/18 07:36:35;;;;;;;15.70;10.48;;;;;;;;;;5070990;28;20119;-71
2022/04/18 07:39:02;;;;;;;15.50;9.88;;;;;;;;;;5052600;28;20062;-71
2022/04/18 07:41:29;;;;;;;15.70;9.75;;;11.50;96.00;;;;;;5070292;28;20044;-70
2022/04/18 07:43:56;;;;;;;15.68;10.27;;;11.50;95.90;;;;;;5071019;28;20076;-70
2022/04/18 07:46:22;;;;;;;17.02;9.40;;;;;;;;;;5070635;28;20086;-70
2022/04/18 07:48:50;;;;;;;15.52;8.90;;;11.80;95.40;;;;;;5035963;28;20060;-71
2022/04/18 07:51:34;;;;;;;14.30;9.32;;;;;;;;;;5062752;28;20040;-70
2022/04/18 07:54:00;;;;;;;;;;;11.90;95.70;;;;;;5047206;28;20414;-70
2022/04/18 07:56:26;;;;;;;15.45;10.00;;;;;;;;;;5047090;28;19921;-69
2022/04/18 07:58:52;;;;;;;14.95;9.25;;;;;;;;;;5012007;28;20182;-69
2022/04/18 08:01:19;;;;;;;12.82;8.75;;;;;;;;;;5028608;28;20172;-71
2022/04/18 08:03:45;;;;;;;13.98;8.82;;;12.00;95.50;;;;;;5046228;28;20052;-70
2022/04/18 08:06:11;;;;;;;14.73;8.50;;;;;;;;;;5046616;28;20446;-71
2022/04/18 08:08:37;;;;;;;11.45;7.93;;;;;;;;;;5028895;28;20127;-71
2022/04/18 08:11:04;;;;;;;12.93;8.50;;;12.50;95.00;;;;;;5028160;28;20041;-72
2022/04/18 08:13:29;;;;;;;11.75;8.15;;;12.50;96.10;;;;;;5028813;28;20128;-71
2022/04/18 08:15:57;;;;;;;13.90;8.10;;;12.90;96.60;;;;;;5046388;28;20115;-71
2022/04/18 08:18:23;;;;;;;14.95;7.93;;;12.80;96.80;;;;;;5032606;28;20040;-71
2022/04/18 08:20:49;;;;;;;12.35;8.23;;;;;;;;;;5047768;28;20530;-71
2022/04/18 08:23:16;;;;;;;12.93;8.07;;;;;;;;;;5042567;28;20414;-70
2022/04/18 08:25:42;;;;;;;11.00;7.38;;;;;;;;;;5066627;28;20049;-71
2022/04/18 08:28:11;;;;;;;16.77;8.02;;;;;;;;;;5031799;28;20067;-71
2022/04/18 08:30:37;;;;;;;12.52;7.53;;;;;;;;;;5047632;28;20048;-71
2022/04/18 08:33:03;;;;;;;10.30;7.20;;;13.50;99.00;;;;;;5048704;28;20120;-71
2022/04/18 08:35:32;;;;;;;10.25;7.28;;;13.50;98.80;;;;;;5050086;28;20319;-71
2022/04/18 08:38:00;;;;;;;10.13;7.15;;;;;;;;;;5069789;28;20045;-71
2022/04/18 08:40:27;;;;;;;11.15;7.45;;;13.70;99.60;;;;;;5037773;28;20127;-71
2022/04/18 08:42:56;;;;;;;9.82;6.95;;;13.80;95.50;;;;;;5073651;28;20045;-71
2022/04/18 08:45:26;;;;;;;9.00;7.45;;;13.80;95.70;;;;;;5036484;28;20402;-71
2022/04/18 08:53:28;;;;;;;14.13;7.70;;;14.10;95.10;;;;;;5071201;28;20041;-71
2022/04/18 08:55:54;;;;;;;16.35;7.55;;;14.10;94.80;;;;;;5073605;28;20072;-71
2022/04/18 08:58:23;;;;;;;8.52;6.45;;;14.10;95.00;;;;;;5039416;28;20141;-71
2022/04/18 09:00:50;;;;;;;9.95;7.13;;;14.40;94.70;;;;;;5054558;28;20076;-71
2022/04/18 09:03:16;;;;;;;9.57;7.25;;;14.30;94.60;;;;;;5073870;28;20383;-71
2022/04/18 09:05:41;;;;;;;11.82;6.93;;;14.60;94.60;;;;;;5073528;28;20040;-71
2022/04/18 09:08:10;;;;;;;9.82;7.10;;;14.90;95.50;;;;;;5038929;28;20685;-71
2022/04/18 09:10:36;;;;;;;12.45;7.18;;;14.90;95.20;;;;;;5038362;28;20490;-71
2022/04/18 09:13:13;;;;;;;12.52;7.47;;;15.70;95.40;;;;;;5073331;28;20041;-71
2022/04/18 09:15:50;;;;;;;10.82;6.90;;;15.00;94.90;;;;;;5038930;28;20045;-70
2022/04/18 09:18:18;;;;;;;9.32;7.13;;;15.00;95.80;;;;;;5052211;28;20122;-71
2022/04/18 09:20:54;;;;;;;11.93;7.60;;;15.00;96.10;;;;;;5052641;28;20441;-71
2022/04/18 09:23:22;;;;;;;10.73;6.75;;;15.30;94.30;;;;;;5053243;28;20044;-71
2022/04/18 09:25:58;;;;;;;8.63;6.63;;;15.30;95.00;;;;;;5034456;28;20041;-71
2022/04/18 09:28:25;;;;;;;26.42;7.40;;;15.30;94.50;;;;;;5035142;28;20033;-71
2022/04/18 09:31:08;;;;;;;8.30;6.22;;;15.30;94.40;;;;;;5018158;28;20373;-71
2022/04/18 09:33:46;;;;;;;8.43;5.13;;;15.40;93.20;;;;;;5056311;28;20479;-71
2022/04/18 09:36:15;;;;;;;12.07;7.07;;;15.70;95.30;;;;;;5054638;28;20105;-71
2022/04/18 09:38:52;;;;;;;12.43;7.32;;;16.20;94.30;;;;;;5038263;28;20048;-72
2022/04/18 09:41:27;;;;;;;10.30;6.70;;;16.20;93.80;;;;;;5054716;28;20044;-72
2022/04/18 09:43:54;;;;;;;8.57;5.63;;;16.00;94.50;;;;;;5040597;28;20045;-71
2022/04/18 09:46:20;;;;;;;8.10;5.68;;;16.20;93.90;;;;;;5034113;28;20101;-71
2022/04/18 09:48:48;;;;;;;8.02;5.25;;;16.10;94.20;;;;;;5057450;22;20381;-68
2022/04/18 09:51:37;;;;;;;8.88;5.13;;;16.30;93.10;;;;;;5067193;28;20048;-68
2022/04/18 09:54:03;;;;;;;6.20;4.63;;;16.30;93.60;;;;;;5052366;28;20037;-68
2022/04/18 09:56:29;;;;;;;7.95;5.40;;;16.50;92.80;;;;;;5066995;28;20593;-68
2022/04/18 09:58:58;;;;;;;7.78;5.43;;;16.40;92.50;;;;;;5049997;28;20041;-67
2022/04/18 10:01:25;;;;;;;8.32;4.90;;;16.40;92.70;;;;;;5051897;28;20033;-68
2022/04/18 10:03:52;;;;;;;6.78;4.97;;;16.50;93.00;;;;;;5050141;28;20110;-68
2022/04/18 10:06:18;;;;;;;8.65;5.05;;;16.90;93.20;;;;;;5051438;28;20403;-69
2022/04/18 10:08:44;;;;;;;7.18;4.75;;;16.80;92.50;;;;;;5050186;28;20047;-69
2022/04/18 10:11:11;;;;;;;6.43;5.18;;;17.00;92.30;;;;;;5050044;28;20029;-68
2022/04/18 10:13:37;;;;;;;8.50;5.40;;;17.00;92.70;;;;;;5049828;28;20403;-69
2022/04/18 10:16:04;;;;;;;7.70;4.93;;;17.00;92.10;;;;;;5050885;28;20060;-67
2022/04/18 10:18:32;;;;;;;7.47;5.18;;;16.90;91.20;;;;;;5049777;28;20286;-69
2022/04/18 10:21:06;;;;;;;7.78;4.95;;;17.10;91.50;;;;;;5049766;28;20033;-69
2022/04/18 10:23:51;;;;;;;6.95;4.40;;;17.30;91.60;;;;;;5049453;28;20131;-68
2022/04/18 10:26:34;;;;;;;5.80;4.55;;;17.50;95.80;;;;;;5033835;28;20124;-69
2022/04/18 10:29:22;;;;;;;6.43;5.28;;;17.80;92.40;;;;;;5051335;28;20044;-68
2022/04/18 10:31:53;;;;;;;7.95;4.68;;;;;;;;;;5051001;28;20128;-69
2022/04/18 10:34:23;;;;;;;5.85;4.10;;;17.50;96.00;;;;;;5050133;28;20549;-68
2022/04/18 10:36:54;;;;;;;5.10;4.13;;;17.50;94.60;;;;;;5049217;28;20368;-69
2022/04/18 10:39:20;;;;;;;6.95;4.10;;;17.70;94.20;;;;;;5048283;28;20049;-70
2022/04/18 10:41:47;;;;;;;9.25;4.65;;;17.90;93.30;;;;;;5040389;28;20098;-69
2022/04/18 10:44:20;;;;;;;6.53;4.43;;;17.70;92.20;;;;;;5048597;28;20032;-69
2022/04/18 10:46:51;;;;;;;4.35;3.63;;;18.00;92.40;;;;;;5047410;28;20384;-69
2022/04/18 10:49:17;;;;;;;6.57;3.55;;;17.90;91.60;;;;;;5047432;28;20051;-68
2022/04/18 10:51:44;;;;;;;4.28;3.63;;;18.10;91.80;;;;;;5049610;28;20470;-69
2022/04/18 10:54:13;;;;;;;9.80;4.03;;;18.00;91.90;;;;;;5050003;28;20076;-68
2022/04/18 10:56:57;;;;;;;7.03;3.70;;;18.20;91.80;;;;;;5049995;28;20041;-69
2022/04/18 10:59:25;;;;;;;5.25;3.53;;;18.40;90.60;;;;;;5048023;28;20044;-69
2022/04/18 11:01:53;;;;;;;4.78;3.03;;;18.30;91.20;;;;;;5049920;28;20178;-69
2022/04/18 11:04:26;;;;;;;4.85;3.20;;;19.10;91.90;;;;;;5049955;28;20039;-68
2022/04/18 11:07:00;;;;;;;4.30;2.90;;;18.70;89.70;;;;;;5050413;28;20044;-69
2022/04/18 11:09:27;;;;;;;4.57;3.10;;;;;;;;;;5048622;28;20109;-68
2022/04/18 11:12:21;;;;;;;6.38;3.47;;;;;;;;;;5048534;28;20099;-65
2022/04/18 11:14:57;;;;;;;5.28;3.08;;;;;;;;;;5032675;28;20185;-69
2022/04/18 11:17:28;;;;;;;3.95;2.92;;;;;;;;;;5049029;28;20041;-67
2022/04/18 11:19:54;;;;;;;5.25;2.70;;;;;;;;;;5047979;28;20556;-69
2022/04/18 11:22:21;;;;;;;6.50;2.55;;;;;;;;;;5043334;28;20720;-69
2022/04/18 11:24:47;;;;;;;3.25;2.75;;;18.70;93.50;;;;;;5049064;28;20398;-69
2022/04/18 11:27:13;;;;;;;3.47;2.88;;;18.90;91.80;;;;;;5050161;28;20041;-69
2022/04/18 11:29:44;;;;;;;4.13;2.55;;;19.00;87.70;;;;;;5032448;28;20519;-69
2022/04/18 11:32:15;;;;;;;4.20;2.78;;;19.30;87.30;;;;;;5050702;28;20489;-69
2022/04/18 11:34:44;;;;;;;3.40;2.63;;;19.00;85.50;;;;;;5048749;28;20044;-69
2022/04/18 11:37:12;;;;;;;4.70;3.28;;;19.20;85.20;;;;;;5049663;28;20049;-69
2022/04/18 11:39:46;;;;;;;7.25;3.50;;;18.90;86.30;;;;;;5048768;28;20371;-69
2022/04/18 11:42:21;;;;;;;4.43;2.70;;;19.00;86.10;;;;;;5049188;28;20125;-69
2022/04/18 11:44:49;;;;;;;5.50;2.83;;;19.10;85.30;;;;;;5050409;28;20037;-69
2022/04/18 11:47:23;;;;;;;4.53;3.05;;;19.10;85.20;;;;;;5049064;28;20041;-70
2022/04/18 11:50:03;;;;;;;4.28;3.10;;;19.10;84.60;;;;;;5031801;28;20036;-69
2022/04/18 11:52:40;;;;;;;6.15;3.50;;;19.30;86.40;;;;;;5028852;28;20098;-69
2022/04/18 11:55:07;;;;;;;6.10;3.50;;;19.10;84.60;;;;;;5031253;28;20042;-68
2022/04/18 11:57:34;;;;;;;4.75;3.13;;;19.30;85.80;;;;;;5049016;28;20052;-69
2022/04/18 12:00:03;;;;;;;6.75;3.08;;;19.20;85.80;;;;;;5048709;28;20518;-69
2022/04/18 12:08:04;;;;;;;4.57;3.20;;;19.70;84.90;;;;;;5050221;28;20182;-68
2022/04/18 12:10:33;;;;;;;4.05;2.88;;;19.60;84.90;;;;;;5046243;28;20029;-68
2022/04/18 12:13:04;;;;;;;4.60;3.20;;;19.80;85.90;;;;;;5050163;28;20045;-68
2022/04/18 12:15:30;;;;;;;4.13;2.80;;;19.80;83.10;;;;;;5052337;28;20037;-67
2022/04/18 12:17:57;;;;;;;3.50;2.47;;;19.70;82.80;;;;;;5051671;28;20166;-68
2022/04/18 12:20:22;;;;;;;7.50;2.65;;;19.50;82.00;;;;;;5051118;28;20067;-68
2022/04/18 12:22:51;;;;;;;4.55;3.03;;;19.70;81.20;;;;;;5053295;28;20036;-68
2022/04/18 12:25:21;;;;;;;4.95;3.28;;;19.50;80.90;;;;;;5053788;28;20053;-68
2022/04/18 12:27:47;;;;;;;5.63;2.90;;;19.80;82.20;;;;;;5052826;28;20148;-70
2022/04/18 12:30:13;;;;;;;5.40;2.55;;;19.60;81.30;;;;;;5051435;28;20128;-68
2022/04/18 12:32:38;;;;;;;3.67;2.70;;;19.60;81.80;;;;;;5051677;28;20036;-68
2022/04/18 12:35:05;;;;;;;5.13;2.95;;;19.70;83.00;;;;;;5052523;28;20079;-66
2022/04/18 12:37:31;;;;;;;5.10;2.70;;;19.60;80.90;;;;;;5034487;28;20041;-68
2022/04/18 12:40:11;;;;;;;6.53;2.88;;;19.80;80.70;;;;;;5031002;28;20036;-68
2022/04/18 12:42:37;;;;;;;4.03;2.78;;;20.50;82.00;;;;;;5051740;28;20033;-67
2022/04/18 12:45:03;;;;;;;5.10;3.17;;;19.90;81.10;;;;;;5048203;28;20048;-68
2022/04/18 12:47:32;;;;;;;2.60;2.40;;;19.90;80.70;;;;;;5053673;28;20037;-69
2022/04/18 12:50:09;;;;;;;6.32;3.15;;;20.00;81.20;;;;;;5050600;28;20044;-69
2022/04/18 12:52:55;;;;;;;4.47;2.42;;;20.10;79.70;;;;;;5051835;28;20040;-69
2022/04/18 12:55:29;;;;;;;4.20;3.13;;;20.00;80.60;;;;;;5050144;28;20532;-66
2022/04/18 12:57:55;;;;;;;4.78;3.33;;;20.00;80.50;;;;;;5051726;28;20033;-69
2022/04/18 13:00:22;;;;;;;5.57;3.20;;;20.00;80.60;;;;;;5052435;28;20055;-69
2022/04/18 13:03:01;;;;;;;3.38;2.50;;;20.10;83.60;;;;;;5053234;28;20042;-69
2022/04/18 13:05:28;;;;;;;6.03;3.05;;;20.30;86.10;;;;;;5052281;28;20057;-69
2022/04/18 13:08:02;;;;;;;2.42;2.13;;;20.30;82.00;;;;;;5053691;28;20040;-68
2022/04/18 13:10:29;;;;;;;3.53;2.63;;;20.50;81.10;;;;;;5050785;28;20041;-69
2022/04/18 13:13:05;;;;;;;4.38;2.72;;;20.40;81.30;;;;;;5052887;28;20053;-69
2022/04/18 13:15:32;;;;;;;3.47;2.70;;;20.50;78.80;;;;;;5051656;28;20040;-69
2022/04/18 13:18:01;;;;;;;4.53;3.00;;;20.60;80.50;;;;;;5052873;28;20498;-69
2022/04/18 13:20:28;;;;;;;6.47;2.85;;;20.50;79.10;;;;;;5050680;28;20037;-69
2022/04/18 13:22:53;;;;;;;3.78;2.72;;;20.50;78.50;;;;;;5051021;28;20499;-70
2022/04/18 13:25:19;;;;;;;3.00;2.38;;;20.20;78.00;;;;;;5050699;28;20045;-68